Bossier City, Louisiana
Current Conditions -  °F | °C
As of 1:53 PM on Wednesday 28 Jan 2015 (Local Time) from KDTN Reporting Station
Clear Clear  
Wind Chill: 74°   Ceiling: Unl
Heat Index: 74°   Visibility: 10mi
Dew Point: 41°   Wind: 15mph
Humidity: 30%   Direction: 190°S
Pressure: 30.11"   Gusts: NA
Location:  32.52°N, 93.73°W
Report Text: KDTN 281953Z 19013KT 10SM CLR 23/05 A3011 RMK AO2 SLP195 T02330050
Loading
Personal Weather Stations






























Interactive Weather Map New forecast layout! Learn more

10-Day Weather Forecast

Advertisements
Track Severe Weather on mobile